Time;durP1;ratioP1;P1;durP2;ratioP2;P2;SDS_P1;SDS_P2;PMS_P1;PMS_P2;Temp;Humidity;BMP_temperature;BMP_pressure;BME280_temperature;BME280_humidity;BME280_pressure;Samples;Min_cycle;Max_cycle;Signal;HPM_P1;HPM_P2
2023/06/23 06:09:58;;;;;;;;;;;;;;;31.59;53.04;100027.44;1839367;77;20121;-70
2023/06/23 06:12:25;;;;;;;;;;;;;;;31.34;52.74;100018.60;1830835;77;20176;-67
2023/06/23 06:14:52;;;;;;;;;;;;;;;31.13;53.25;100023.87;1798897;79;20102;-63
2023/06/23 06:17:18;;;;;;;;;;;;;;;30.97;54.14;100019.83;1796315;78;20393;-68
2023/06/23 06:19:46;;;;;;;;;;;;;;;30.88;55.04;100016.27;1822046;77;20099;-69
2023/06/23 06:22:13;;;;;;;;;;;;;;;30.85;55.82;100012.16;1812357;78;20405;-67
2023/06/23 06:24:39;;;;;;;;;;;;;;;30.82;55.88;100014.76;1800894;79;20219;-68
2023/06/23 06:27:07;;;;;;;;;;;;;;;30.81;56.53;100011.77;1826087;77;20159;-63
2023/06/23 06:29:35;;;;;;;;;;;;;;;30.85;56.85;100018.88;1809658;77;20191;-67
2023/06/23 06:32:03;;;;;;;;;;;;;;;30.89;56.40;100020.09;1807663;78;20086;-65
2023/06/23 06:34:30;;;;;;;;;;;;;;;30.85;56.30;100007.60;1813053;78;20135;-69
2023/06/23 06:36:57;;;;;;;;;;;;;;;30.83;56.89;100002.96;1799804;77;20094;-67
2023/06/23 06:39:24;;;;;;;;;;;;;;;30.96;57.50;99993.16;1822465;77;20103;-63
2023/06/23 06:41:50;;;;;;;;;;;;;;;31.34;57.84;99992.52;1748925;81;20205;-66
2023/06/23 06:44:19;;;;;;;;;;;;;;;31.83;55.67;99998.33;1745194;81;20171;-66
2023/06/23 06:46:46;;;;;;;;;;;;;;;32.08;53.74;99990.12;1741907;81;20131;-67
2023/06/23 06:49:13;;;;;;;;;;;;;;;32.14;52.98;99985.18;1743566;81;20304;-70
2023/06/23 06:54:31;;;;;;;;;;;;;;;32.29;52.28;99992.89;1801624;78;20100;-68
2023/06/23 06:56:57;;;;;;;;;;;;;;;32.32;51.91;99989.75;1794418;78;20167;-68
2023/06/23 06:59:24;;;;;;;;;;;;;;;32.28;51.69;99980.47;1793317;79;20400;-70
2023/06/23 07:01:50;;;;;;;;;;;;;;;32.19;51.45;99973.72;1796883;78;20169;-67
2023/06/23 07:04:17;;;;;;;;;;;;;;;32.12;51.50;99985.11;1805658;79;20401;-66
2023/06/23 07:06:45;;;;;;;;;;;;;;;32.01;51.48;99977.27;1801890;78;20096;-66
2023/06/23 07:09:12;;;;;;;;;;;;;;;31.89;51.82;99980.97;1801399;77;20134;-65
2023/06/23 07:11:39;;;;;;;;;;;;;;;31.72;52.13;99979.41;1801372;79;20161;-66
2023/06/23 07:14:06;;;;;;;;;;;;;;;31.55;52.30;99981.86;1795332;78;20388;-67
2023/06/23 07:16:33;;;;;;;;;;;;;;;31.41;52.90;99984.38;1801050;78;20133;-70
2023/06/23 07:19:00;;;;;;;;;;;;;;;31.36;53.34;99976.97;1813677;77;20385;-68
2023/06/23 07:21:27;;;;;;;;;;;;;;;31.45;54.06;99975.64;1805853;78;20154;-64
2023/06/23 07:23:54;;;;;;;;;;;;;;;31.75;53.94;99973.05;1798739;79;20134;-68
2023/06/23 08:17:51;;;;;;;;;;;;;;;35.83;39.73;99938.48;1817320;77;20094;-65
2023/06/23 08:20:18;;;;;;;;;;;;;;;35.85;39.38;99941.22;1817883;77;20187;-67
2023/06/23 08:25:45;;;;;;;;;;;;;;;35.46;38.47;99934.22;1802361;78;20412;-66
2023/06/23 08:28:13;;;;;;;;;;;;;;;35.20;38.84;99936.54;1820508;77;20138;-65
2023/06/23 08:30:39;;;;;;;;;;;;;;;34.92;38.99;99932.63;1812630;78;20447;-70
2023/06/23 08:33:06;;;;;;;;;;;;;;;34.69;39.45;99925.49;1792024;78;20098;-69
2023/06/23 08:35:33;;;;;;;;;;;;;;;34.44;39.89;99933.45;1816514;78;20128;-68
2023/06/23 08:38:00;;;;;;;;;;;;;;;34.26;40.84;99932.31;1810300;78;20176;-70
2023/06/23 08:40:26;;;;;;;;;;;;;;;34.25;40.66;99932.56;1810524;78;20275;-70
2023/06/23 08:42:53;;;;;;;;;;;;;;;34.27;40.93;99934.48;1813189;78;20100;-71
2023/06/23 08:45:20;;;;;;;;;;;;;;;34.41;40.97;99928.53;1801651;77;20360;-72
2023/06/23 08:47:48;;;;;;;;;;;;;;;34.56;40.58;99913.64;1799653;79;20128;-67
2023/06/23 08:50:15;;;;;;;;;;;;;;;34.79;40.56;99914.80;1812308;77;20477;-66
2023/06/23 08:52:43;;;;;;;;;;;;;;;35.00;40.12;99922.73;1778318;78;20136;-67
2023/06/23 08:55:10;;;;;;;;;;;;;;;35.14;39.40;99918.61;1802363;77;20168;-70
2023/06/23 08:57:38;;;;;;;;;;;;;;;35.16;38.96;99918.37;1804660;78;20203;-67
2023/06/23 13:41:42;;;;;;;;;;;;;;;30.99;43.30;99821.95;1809383;77;20136;-64
2023/06/23 13:44:13;;;;;;;;;;;;;;;31.00;43.32;99825.76;1814103;78;20126;-64
2023/06/23 13:54:23;;;;;;;;;;;;;;;30.91;43.11;99830.30;1811039;77;20107;-64
2023/06/23 13:56:51;;;;;;;;;;;;;;;30.89;43.05;99830.52;1805543;78;20099;-65
2023/06/23 13:59:17;;;;;;;;;;;;;;;30.86;43.23;99824.25;1798809;78;20162;-62
2023/06/23 14:01:43;;;;;;;;;;;;;;;30.85;43.01;99814.02;1809522;78;20122;-63
2023/06/23 14:04:10;;;;;;;;;;;;;;;30.80;43.28;99816.55;1839294;77;20108;-63
